sensor_id;sensor_type;location;lat;lon;timestamp;pressure;altitude;pressure_sealevel;temperature;humidity
29383;BME280;16365;51.598;7.668;2023-02-19T00:01:08;100955.91;;;16.12;56.28
29383;BME280;16365;51.598;7.668;2023-02-19T00:03:36;100971.78;;;16.08;56.40
29383;BME280;16365;51.598;7.668;2023-02-19T00:06:05;100968.53;;;16.06;56.55
29383;BME280;16365;51.598;7.668;2023-02-19T00:08:34;100974.84;;;16.03;56.45
29383;BME280;16365;51.598;7.668;2023-02-19T00:11:07;100973.59;;;16.01;56.54
29383;BME280;16365;51.598;7.668;2023-02-19T00:13:35;100972.75;;;16.00;56.62
29383;BME280;16365;51.598;7.668;2023-02-19T00:16:15;100969.16;;;16.00;57.05
29383;BME280;16365;51.598;7.668;2023-02-19T00:18:43;100965.91;;;15.98;56.47
29383;BME280;16365;51.598;7.668;2023-02-19T00:21:09;100972.31;;;15.98;56.63
29383;BME280;16365;51.598;7.668;2023-02-19T00:23:37;100960.31;;;15.98;56.66
29383;BME280;16365;51.598;7.668;2023-02-19T00:26:05;100969.06;;;15.96;56.75
29383;BME280;16365;51.598;7.668;2023-02-19T00:28:43;100972.69;;;15.97;56.89
29383;BME280;16365;51.598;7.668;2023-02-19T00:33:44;100968.25;;;15.96;56.95
29383;BME280;16365;51.598;7.668;2023-02-19T00:36:11;100965.91;;;15.98;56.95
29383;BME280;16365;51.598;7.668;2023-02-19T00:38:39;100968.72;;;15.98;56.88
29383;BME280;16365;51.598;7.668;2023-02-19T00:41:06;100962.75;;;15.99;56.98
29383;BME280;16365;51.598;7.668;2023-02-19T00:46:12;100954.09;;;16.04;56.76
29383;BME280;16365;51.598;7.668;2023-02-19T00:48:38;100948.16;;;16.06;56.77
29383;BME280;16365;51.598;7.668;2023-02-19T00:51:04;100956.19;;;16.07;56.83
29383;BME280;16365;51.598;7.668;2023-02-19T00:53:31;100943.81;;;16.08;56.86
29383;BME280;16365;51.598;7.668;2023-02-19T00:55:57;100945.91;;;16.11;56.76
29383;BME280;16365;51.598;7.668;2023-02-19T00:58:24;100955.53;;;16.14;57.05
29383;BME280;16365;51.598;7.668;2023-02-19T01:00:50;100961.59;;;16.16;56.87
29383;BME280;16365;51.598;7.668;2023-02-19T01:03:17;100952.41;;;16.15;56.80
29383;BME280;16365;51.598;7.668;2023-02-19T01:05:43;100955.66;;;16.17;56.61
29383;BME280;16365;51.598;7.668;2023-02-19T01:08:10;100954.94;;;16.21;56.48
29383;BME280;16365;51.598;7.668;2023-02-19T01:10:36;100952.94;;;16.21;56.53
29383;BME280;16365;51.598;7.668;2023-02-19T01:13:06;100956.56;;;16.22;56.55
29383;BME280;16365;51.598;7.668;2023-02-19T01:15:32;100956.19;;;16.23;56.26
29383;BME280;16365;51.598;7.668;2023-02-19T01:17:59;100956.66;;;16.25;56.63
29383;BME280;16365;51.598;7.668;2023-02-19T01:20:26;100956.66;;;16.25;56.69
29383;BME280;16365;51.598;7.668;2023-02-19T01:22:53;100950.69;;;16.27;56.37
29383;BME280;16365;51.598;7.668;2023-02-19T01:25:19;100957.91;;;16.28;56.54
29383;BME280;16365;51.598;7.668;2023-02-19T01:27:46;100945.19;;;16.30;56.20
29383;BME280;16365;51.598;7.668;2023-02-19T01:30:12;100958.38;;;16.30;56.40
29383;BME280;16365;51.598;7.668;2023-02-19T01:32:38;100950.78;;;16.30;56.08
29383;BME280;16365;51.598;7.668;2023-02-19T01:35:05;100947.19;;;16.30;56.40
29383;BME280;16365;51.598;7.668;2023-02-19T01:37:32;100949.13;;;16.29;56.46
29383;BME280;16365;51.598;7.668;2023-02-19T01:39:58;100943.09;;;16.27;56.35
29383;BME280;16365;51.598;7.668;2023-02-19T01:42:24;100951.50;;;16.27;56.23
29383;BME280;16365;51.598;7.668;2023-02-19T01:45:20;100941.75;;;16.21;56.66
29383;BME280;16365;51.598;7.668;2023-02-19T01:47:50;100937.41;;;16.24;56.46
29383;BME280;16365;51.598;7.668;2023-02-19T01:50:19;100931.81;;;16.24;56.44
29383;BME280;16365;51.598;7.668;2023-02-19T01:52:46;100933.00;;;16.23;56.44
29383;BME280;16365;51.598;7.668;2023-02-19T01:55:12;100934.16;;;16.22;56.46
29383;BME280;16365;51.598;7.668;2023-02-19T01:57:46;100936.50;;;16.19;56.66
29383;BME280;16365;51.598;7.668;2023-02-19T02:00:15;100931.38;;;16.22;56.80
29383;BME280;16365;51.598;7.668;2023-02-19T02:02:45;100925.78;;;16.22;56.73
29383;BME280;16365;51.598;7.668;2023-02-19T02:05:22;100924.97;;;16.21;56.59
29383;BME280;16365;51.598;7.668;2023-02-19T02:07:50;100937.41;;;16.24;56.51
29383;BME280;16365;51.598;7.668;2023-02-19T02:10:35;100937.41;;;16.24;56.48
29383;BME280;16365;51.598;7.668;2023-02-19T02:13:01;100933.34;;;16.21;56.42
29383;BME280;16365;51.598;7.668;2023-02-19T02:15:42;100934.81;;;16.15;56.25
29383;BME280;16365;51.598;7.668;2023-02-19T02:23:34;100936.69;;;16.11;56.78
29383;BME280;16365;51.598;7.668;2023-02-19T02:26:15;100947.53;;;16.12;56.92
29383;BME280;16365;51.598;7.668;2023-02-19T02:31:32;100942.63;;;16.09;57.00
29383;BME280;16365;51.598;7.668;2023-02-19T02:34:06;100945.09;;;16.11;57.19
29383;BME280;16365;51.598;7.668;2023-02-19T02:36:43;100948.69;;;16.11;56.90
29383;BME280;16365;51.598;7.668;2023-02-19T02:39:16;100947.88;;;16.11;57.03
29383;BME280;16365;51.598;7.668;2023-02-19T02:41:58;100952.56;;;16.07;56.76
29383;BME280;16365;51.598;7.668;2023-02-19T02:44:44;100953.81;;;16.09;57.07
29383;BME280;16365;51.598;7.668;2023-02-19T02:47:33;100945.00;;;16.07;57.00
29383;BME280;16365;51.598;7.668;2023-02-19T02:50:16;100947.34;;;16.05;56.98
29383;BME280;16365;51.598;7.668;2023-02-19T02:52:47;100954.91;;;16.05;57.05
29383;BME280;16365;51.598;7.668;2023-02-19T02:55:38;100946.06;;;16.03;56.66
29383;BME280;16365;51.598;7.668;2023-02-19T02:58:07;100958.88;;;16.04;56.63
29383;BME280;16365;51.598;7.668;2023-02-19T03:00:34;100950.03;;;16.02;56.54
29383;BME280;16365;51.598;7.668;2023-02-19T03:03:23;100955.97;;;16.00;56.59
29383;BME280;16365;51.598;7.668;2023-02-19T03:05:54;100945.97;;;15.99;56.46
29383;BME280;16365;51.598;7.668;2023-02-19T03:11:11;100957.78;;;15.92;56.84
29383;BME280;16365;51.598;7.668;2023-02-19T03:14:04;100963.38;;;15.92;56.55
29383;BME280;16365;51.598;7.668;2023-02-19T03:16:50;100963.00;;;15.94;56.53
29383;BME280;16365;51.598;7.668;2023-02-19T03:19:41;100955.34;;;15.91;56.55
29383;BME280;16365;51.598;7.668;2023-02-19T03:22:16;100952.44;;;15.87;56.67
29383;BME280;16365;51.598;7.668;2023-02-19T03:24:56;100957.56;;;15.85;56.82
29383;BME280;16365;51.598;7.668;2023-02-19T03:27:45;100959.22;;;15.86;56.41
29383;BME280;16365;51.598;7.668;2023-02-19T03:30:19;100957.94;;;15.84;56.46
29383;BME280;16365;51.598;7.668;2023-02-19T03:33:03;100963.44;;;15.80;56.29
29383;BME280;16365;51.598;7.668;2023-02-19T03:35:44;100972.63;;;15.81;56.72
29383;BME280;16365;51.598;7.668;2023-02-19T03:38:36;100973.81;;;15.80;56.51
29383;BME280;16365;51.598;7.668;2023-02-19T03:41:35;100974.63;;;15.80;56.58
29383;BME280;16365;51.598;7.668;2023-02-19T03:44:26;100979.50;;;15.83;56.64
29383;BME280;16365;51.598;7.668;2023-02-19T03:47:26;100986.25;;;15.82;56.46
29383;BME280;16365;51.598;7.668;2023-02-19T03:55:26;100995.84;;;15.81;56.51
29383;BME280;16365;51.598;7.668;2023-02-19T03:58:11;100998.63;;;15.81;56.28
29383;BME280;16365;51.598;7.668;2023-02-19T04:00:42;101001.06;;;15.83;56.44
29383;BME280;16365;51.598;7.668;2023-02-19T04:03:15;101007.81;;;15.82;56.17
29383;BME280;16365;51.598;7.668;2023-02-19T04:05:47;101002.22;;;15.82;56.24
29383;BME280;16365;51.598;7.668;2023-02-19T04:08:17;101009.81;;;15.81;56.29
29383;BME280;16365;51.598;7.668;2023-02-19T04:10:46;101014.22;;;15.82;56.15
29383;BME280;16365;51.598;7.668;2023-02-19T04:13:22;101010.16;;;15.80;56.11
29383;BME280;16365;51.598;7.668;2023-02-19T04:15:50;101018.19;;;15.81;55.95
29383;BME280;16365;51.598;7.668;2023-02-19T04:18:23;101025.75;;;15.81;56.13
29383;BME280;16365;51.598;7.668;2023-02-19T04:20:51;101031.34;;;15.81;56.10
29383;BME280;16365;51.598;7.668;2023-02-19T04:23:22;101034.50;;;15.79;56.26
29383;BME280;16365;51.598;7.668;2023-02-19T04:25:54;101029.72;;;15.80;56.29
29383;BME280;16365;51.598;7.668;2023-02-19T04:28:22;101028.53;;;15.81;56.26
29383;BME280;16365;51.598;7.668;2023-02-19T04:30:49;101036.13;;;15.80;56.08
29383;BME280;16365;51.598;7.668;2023-02-19T04:33:16;101043.69;;;15.80;56.25
29383;BME280;16365;51.598;7.668;2023-02-19T04:35:42;101053.25;;;15.79;56.02
29383;BME280;16365;51.598;7.668;2023-02-19T04:38:09;101050.09;;;15.80;56.22
29383;BME280;16365;51.598;7.668;2023-02-19T04:40:35;101055.69;;;15.80;56.15
29383;BME280;16365;51.598;7.668;2023-02-19T04:43:02;101056.06;;;15.79;56.14
29383;BME280;16365;51.598;7.668;2023-02-19T04:45:28;101062.44;;;15.79;56.05
29383;BME280;16365;51.598;7.668;2023-02-19T04:47:57;101066.78;;;15.77;56.35
29383;BME280;16365;51.598;7.668;2023-02-19T04:50:24;101066.44;;;15.78;56.06
29383;BME280;16365;51.598;7.668;2023-02-19T04:52:51;101071.22;;;15.78;56.10
29383;BME280;16365;51.598;7.668;2023-02-19T04:55:17;101071.56;;;15.76;55.91
29383;BME280;16365;51.598;7.668;2023-02-19T04:57:45;101076.31;;;15.76;56.00
29383;BME280;16365;51.598;7.668;2023-02-19T05:00:12;101083.09;;;15.75;55.87
29383;BME280;16365;51.598;7.668;2023-02-19T05:02:39;101083.44;;;15.73;56.04
29383;BME280;16365;51.598;7.668;2023-02-19T05:05:05;101075.88;;;15.74;56.03
29383;BME280;16365;51.598;7.668;2023-02-19T05:07:32;101082.28;;;15.74;56.10
29383;BME280;16365;51.598;7.668;2023-02-19T05:09:59;101091.47;;;15.75;56.03
29383;BME280;16365;51.598;7.668;2023-02-19T05:12:25;101089.50;;;15.75;55.97
29383;BME280;16365;51.598;7.668;2023-02-19T05:14:52;101099.84;;;15.75;55.95
29383;BME280;16365;51.598;7.668;2023-02-19T05:17:18;101106.25;;;15.75;55.81
29383;BME280;16365;51.598;7.668;2023-02-19T05:19:45;101100.66;;;15.75;55.91
29383;BME280;16365;51.598;7.668;2023-02-19T05:22:12;101107.06;;;15.76;55.87
29383;BME280;16365;51.598;7.668;2023-02-19T05:24:38;101112.22;;;15.74;55.82
29383;BME280;16365;51.598;7.668;2023-02-19T05:27:05;101118.16;;;15.72;55.86
29383;BME280;16365;51.598;7.668;2023-02-19T05:29:32;101122.59;;;15.73;56.07
29383;BME280;16365;51.598;7.668;2023-02-19T05:31:59;101116.50;;;15.71;55.80
29383;BME280;16365;51.598;7.668;2023-02-19T05:34:26;101122.94;;;15.72;55.64
29383;BME280;16365;51.598;7.668;2023-02-19T05:36:53;101127.69;;;15.71;55.62
29383;BME280;16365;51.598;7.668;2023-02-19T05:39:19;101126.06;;;15.70;55.66
29383;BME280;16365;51.598;7.668;2023-02-19T05:41:45;101122.47;;;15.70;55.86
29383;BME280;16365;51.598;7.668;2023-02-19T05:44:12;101127.25;;;15.69;55.73
29383;BME280;16365;51.598;7.668;2023-02-19T05:46:38;101132.84;;;15.69;55.52
29383;BME280;16365;51.598;7.668;2023-02-19T05:49:08;101132.03;;;15.68;55.48
29383;BME280;16365;51.598;7.668;2023-02-19T05:51:34;101129.25;;;15.68;55.73
29383;BME280;16365;51.598;7.668;2023-02-19T05:54:01;101132.84;;;15.69;55.79
29383;BME280;16365;51.598;7.668;2023-02-19T05:56:34;101134.38;;;15.66;55.54
29383;BME280;16365;51.598;7.668;2023-02-19T05:59:09;101139.13;;;15.66;55.35
29383;BME280;16365;51.598;7.668;2023-02-19T06:01:41;101145.19;;;15.68;55.52
29383;BME280;16365;51.598;7.668;2023-02-19T06:04:09;101143.91;;;15.65;55.43
29383;BME280;16365;51.598;7.668;2023-02-19T06:06:36;101151.84;;;15.63;55.76
29383;BME280;16365;51.598;7.668;2023-02-19T06:09:03;101155.78;;;15.62;55.48
29383;BME280;16365;51.598;7.668;2023-02-19T06:11:30;101157.28;;;15.60;55.71
29383;BME280;16365;51.598;7.668;2023-02-19T06:13:56;101161.25;;;15.59;55.59
29383;BME280;16365;51.598;7.668;2023-02-19T06:16:23;101167.19;;;15.57;55.52
29383;BME280;16365;51.598;7.668;2023-02-19T06:18:50;101163.91;;;15.55;55.65
29383;BME280;16365;51.598;7.668;2023-02-19T06:21:17;101167.06;;;15.54;55.53
29383;BME280;16365;51.598;7.668;2023-02-19T06:23:45;101168.25;;;15.53;55.81
29383;BME280;16365;51.598;7.668;2023-02-19T06:26:20;101172.91;;;15.49;55.63
29383;BME280;16365;51.598;7.668;2023-02-19T06:28:49;101181.28;;;15.49;55.67
29383;BME280;16365;51.598;7.668;2023-02-19T06:31:18;101184.41;;;15.47;55.66
29383;BME280;16365;51.598;7.668;2023-02-19T06:33:45;101180.00;;;15.46;55.85
29383;BME280;16365;51.598;7.668;2023-02-19T06:36:15;101188.28;;;15.42;55.88
29383;BME280;16365;51.598;7.668;2023-02-19T06:38:41;101189.41;;;15.41;56.00
29383;BME280;16365;51.598;7.668;2023-02-19T06:41:09;101192.56;;;15.40;55.94
29383;BME280;16365;51.598;7.668;2023-02-19T06:43:39;101192.56;;;15.40;56.27
29383;BME280;16365;51.598;7.668;2023-02-19T06:46:07;101186.53;;;15.38;56.23
29383;BME280;16365;51.598;7.668;2023-02-19T06:48:34;101198.53;;;15.38;56.03
29383;BME280;16365;51.598;7.668;2023-02-19T06:51:01;101190.13;;;15.38;56.12
29383;BME280;16365;51.598;7.668;2023-02-19T06:53:27;101197.72;;;15.38;56.17
29383;BME280;16365;51.598;7.668;2023-02-19T06:58:45;101201.31;;;15.38;55.96
29383;BME280;16365;51.598;7.668;2023-02-19T07:01:11;101211.69;;;15.38;56.10
29383;BME280;16365;51.598;7.668;2023-02-19T07:03:38;101206.91;;;15.38;55.90
29383;BME280;16365;51.598;7.668;2023-02-19T07:06:05;101223.66;;;15.38;56.17
29383;BME280;16365;51.598;7.668;2023-02-19T07:08:31;101227.28;;;15.39;56.21
29383;BME280;16365;51.598;7.668;2023-02-19T07:10:58;101231.69;;;15.40;56.17
29383;BME280;16365;51.598;7.668;2023-02-19T07:13:25;101236.91;;;15.41;56.29
29383;BME280;16365;51.598;7.668;2023-02-19T07:16:00;101245.66;;;15.40;56.29
29383;BME280;16365;51.598;7.668;2023-02-19T07:18:29;101247.78;;;15.43;56.30
29383;BME280;16365;51.598;7.668;2023-02-19T07:21:02;101259.28;;;15.41;56.08
29383;BME280;16365;51.598;7.668;2023-02-19T07:23:28;101261.38;;;15.45;55.90
29383;BME280;16365;51.598;7.668;2023-02-19T07:25:55;101265.81;;;15.46;56.31
29383;BME280;16365;51.598;7.668;2023-02-19T07:28:22;101266.16;;;15.44;55.93
29383;BME280;16365;51.598;7.668;2023-02-19T07:30:48;101265.69;;;15.42;56.32
29383;BME280;16365;51.598;7.668;2023-02-19T07:33:15;101270.44;;;15.41;56.12
29383;BME280;16365;51.598;7.668;2023-02-19T07:35:46;101276.41;;;15.40;56.45
29383;BME280;16365;51.598;7.668;2023-02-19T07:38:16;101286.28;;;15.37;56.27
29383;BME280;16365;51.598;7.668;2023-02-19T07:40:57;101296.63;;;15.37;56.52
29383;BME280;16365;51.598;7.668;2023-02-19T07:43:24;101305.16;;;15.40;56.54
29383;BME280;16365;51.598;7.668;2023-02-19T07:45:51;101313.53;;;15.40;56.21
29383;BME280;16365;51.598;7.668;2023-02-19T07:48:18;101305.97;;;15.41;56.34
29383;BME280;16365;51.598;7.668;2023-02-19T07:50:57;101305.16;;;15.40;56.19
29383;BME280;16365;51.598;7.668;2023-02-19T07:53:25;101306.44;;;15.43;56.24
29383;BME280;16365;51.598;7.668;2023-02-19T07:55:58;101313.19;;;15.42;56.43
29383;BME280;16365;51.598;7.668;2023-02-19T07:58:24;101313.31;;;15.46;56.39
29383;BME280;16365;51.598;7.668;2023-02-19T08:00:51;101315.28;;;15.45;56.32
29383;BME280;16365;51.598;7.668;2023-02-19T08:03:18;101318.91;;;15.46;56.68
29383;BME280;16365;51.598;7.668;2023-02-19T08:05:44;101326.94;;;15.47;56.69
29383;BME280;16365;51.598;7.668;2023-02-19T08:08:17;101331.84;;;15.50;56.53
29383;BME280;16365;51.598;7.668;2023-02-19T08:10:44;101337.06;;;15.52;56.47
29383;BME280;16365;51.598;7.668;2023-02-19T08:13:29;101344.41;;;15.56;56.64
29383;BME280;16365;51.598;7.668;2023-02-19T08:16:09;101352.34;;;15.54;56.30
29383;BME280;16365;51.598;7.668;2023-02-19T08:18:49;101358.16;;;15.61;56.28
29383;BME280;16365;51.598;7.668;2023-02-19T08:21:18;101355.88;;;15.63;56.24
29383;BME280;16365;51.598;7.668;2023-02-19T08:23:46;101352.06;;;15.68;56.11
29383;BME280;16365;51.598;7.668;2023-02-19T08:26:16;101350.06;;;15.68;56.07
29383;BME280;16365;51.598;7.668;2023-02-19T08:28:44;101356.47;;;15.69;56.12
29383;BME280;16365;51.598;7.668;2023-02-19T08:31:11;101351.25;;;15.67;56.01
29383;BME280;16365;51.598;7.668;2023-02-19T08:33:39;101348.78;;;15.66;56.01
29383;BME280;16365;51.598;7.668;2023-02-19T08:36:07;101351.94;;;15.64;56.13
29383;BME280;16365;51.598;7.668;2023-02-19T08:38:35;101355.38;;;15.61;56.25
29383;BME280;16365;51.598;7.668;2023-02-19T08:41:11;101353.28;;;15.58;56.46
29383;BME280;16365;51.598;7.668;2023-02-19T08:43:39;101372.16;;;15.61;56.62
29383;BME280;16365;51.598;7.668;2023-02-19T08:46:07;101368.53;;;15.61;56.45
29383;BME280;16365;51.598;7.668;2023-02-19T08:48:36;101365.75;;;15.61;56.38
29383;BME280;16365;51.598;7.668;2023-02-19T08:51:06;101367.72;;;15.60;56.30
29383;BME280;16365;51.598;7.668;2023-02-19T08:53:36;101384.50;;;15.60;56.33
29383;BME280;16365;51.598;7.668;2023-02-19T08:56:10;101380.88;;;15.60;56.58
29383;BME280;16365;51.598;7.668;2023-02-19T08:58:37;101380.88;;;15.60;56.58
29383;BME280;16365;51.598;7.668;2023-02-19T09:01:12;101372.03;;;15.58;56.27
29383;BME280;16365;51.598;7.668;2023-02-19T09:03:41;101382.50;;;15.61;56.55
29383;BME280;16365;51.598;7.668;2023-02-19T09:06:13;101394.84;;;15.60;56.33
29383;BME280;16365;51.598;7.668;2023-02-19T09:08:43;101394.19;;;15.63;56.42
29383;BME280;16365;51.598;7.668;2023-02-19T09:11:09;101403.72;;;15.62;56.19
29383;BME280;16365;51.598;7.668;2023-02-19T09:13:39;101402.56;;;15.63;56.42
29383;BME280;16365;51.598;7.668;2023-02-19T09:16:06;101400.63;;;15.63;56.47
29383;BME280;16365;51.598;7.668;2023-02-19T09:18:34;101405.53;;;15.66;56.70
29383;BME280;16365;51.598;7.668;2023-02-19T09:21:02;101407.97;;;15.68;56.71
29383;BME280;16365;51.598;7.668;2023-02-19T09:23:33;101408.41;;;15.70;56.82
29383;BME280;16365;51.598;7.668;2023-02-19T09:26:00;101424.16;;;15.75;56.88
29383;BME280;16365;51.598;7.668;2023-02-19T09:28:26;101425.91;;;15.79;56.47
29383;BME280;16365;51.598;7.668;2023-02-19T09:30:53;101426.06;;;15.83;56.55
29383;BME280;16365;51.598;7.668;2023-02-19T09:33:20;101425.69;;;15.84;56.46
29383;BME280;16365;51.598;7.668;2023-02-19T09:35:46;101432.59;;;15.87;56.60
29383;BME280;16365;51.598;7.668;2023-02-19T09:38:12;101438.28;;;15.90;56.82
29383;BME280;16365;51.598;7.668;2023-02-19T09:40:39;101443.19;;;15.93;56.63
29383;BME280;16365;51.598;7.668;2023-02-19T09:43:08;101442.50;;;15.97;56.46
29383;BME280;16365;51.598;7.668;2023-02-19T09:45:40;101436.22;;;16.00;56.37
29383;BME280;16365;51.598;7.668;2023-02-19T09:48:08;101440.75;;;16.04;56.21
29383;BME280;16365;51.598;7.668;2023-02-19T09:50:40;101444.16;;;16.10;56.80
29383;BME280;16365;51.598;7.668;2023-02-19T09:53:25;101456.63;;;16.12;56.27
29383;BME280;16365;51.598;7.668;2023-02-19T09:55:52;101449.78;;;16.22;56.65
29383;BME280;16365;51.598;7.668;2023-02-19T09:58:34;101473.44;;;16.25;56.24
29383;BME280;16365;51.598;7.668;2023-02-19T10:01:03;101478.47;;;16.31;56.43
29383;BME280;16365;51.598;7.668;2023-02-19T10:03:33;101473.81;;;16.35;55.92
29383;BME280;16365;51.598;7.668;2023-02-19T10:06:27;101488.75;;;16.39;55.58
29383;BME280;16365;51.598;7.668;2023-02-19T10:09:10;101492.94;;;16.45;55.70
29383;BME280;16365;51.598;7.668;2023-02-19T10:11:39;101507.88;;;16.50;55.89
29383;BME280;16365;51.598;7.668;2023-02-19T10:14:48;101516.97;;;16.47;55.24
29383;BME280;16365;51.598;7.668;2023-02-19T10:17:16;101538.66;;;16.50;55.14
29383;BME280;16365;51.598;7.668;2023-02-19T10:19:50;101543.91;;;16.51;54.63
29383;BME280;16365;51.598;7.668;2023-02-19T10:22:18;101552.19;;;16.48;53.31
29383;BME280;16365;51.598;7.668;2023-02-19T10:24:49;101562.88;;;16.33;51.58
29383;BME280;16365;51.598;7.668;2023-02-19T10:27:18;101565.06;;;16.15;51.22
29383;BME280;16365;51.598;7.668;2023-02-19T10:29:46;101578.97;;;15.91;51.82
29383;BME280;16365;51.598;7.668;2023-02-19T10:32:20;101581.16;;;15.64;51.64
29383;BME280;16365;51.598;7.668;2023-02-19T10:35:12;101573.25;;;15.37;52.06
29383;BME280;16365;51.598;7.668;2023-02-19T10:37:42;101573.25;;;15.16;51.75
29383;BME280;16365;51.598;7.668;2023-02-19T10:40:15;101583.75;;;14.89;52.38
29383;BME280;16365;51.598;7.668;2023-02-19T10:42:51;101596.34;;;14.66;52.81
29383;BME280;16365;51.598;7.668;2023-02-19T10:48:03;101599.19;;;14.31;53.65
29383;BME280;16365;51.598;7.668;2023-02-19T10:50:38;101600.69;;;14.11;54.21
29383;BME280;16365;51.598;7.668;2023-02-19T10:53:22;101606.78;;;13.96;54.00
29383;BME280;16365;51.598;7.668;2023-02-19T10:56:05;101624.16;;;13.84;54.38
29383;BME280;16365;51.598;7.668;2023-02-19T10:58:32;101622.38;;;13.80;54.72
29383;BME280;16365;51.598;7.668;2023-02-19T11:03:35;101635.81;;;13.69;55.19
29383;BME280;16365;51.598;7.668;2023-02-19T11:06:05;101621.38;;;13.67;55.76
29383;BME280;16365;51.598;7.668;2023-02-19T11:08:55;101626.44;;;13.65;56.48
29383;BME280;16365;51.598;7.668;2023-02-19T11:11:36;101629.41;;;13.69;56.79
29383;BME280;16365;51.598;7.668;2023-02-19T11:14:14;101634.00;;;13.73;56.30
29383;BME280;16365;51.598;7.668;2023-02-19T11:16:45;101640.25;;;13.79;55.96
29383;BME280;16365;51.598;7.668;2023-02-19T11:19:38;101647.44;;;13.80;56.45
29383;BME280;16365;51.598;7.668;2023-02-19T11:22:31;101635.66;;;13.83;56.05
29383;BME280;16365;51.598;7.668;2023-02-19T11:25:21;101642.53;;;13.85;55.85
29383;BME280;16365;51.598;7.668;2023-02-19T11:27:59;101645.78;;;13.87;55.53
29383;BME280;16365;51.598;7.668;2023-02-19T11:33:21;101645.50;;;13.89;55.80
29383;BME280;16365;51.598;7.668;2023-02-19T11:36:20;101647.28;;;13.85;55.27
29383;BME280;16365;51.598;7.668;2023-02-19T11:38:51;101637.59;;;13.82;55.63
29383;BME280;16365;51.598;7.668;2023-02-19T11:41:31;101636.94;;;13.77;56.06
29383;BME280;16365;51.598;7.668;2023-02-19T11:47:28;101644.50;;;13.76;56.00
29383;BME280;16365;51.598;7.668;2023-02-19T12:10:19;101636.94;;;13.77;56.12
29383;BME280;16365;51.598;7.668;2023-02-19T12:15:54;101634.81;;;13.82;55.99
29383;BME280;16365;51.598;7.668;2023-02-19T12:18:45;101634.97;;;13.86;56.37
29383;BME280;16365;51.598;7.668;2023-02-19T12:21:46;101641.53;;;13.90;55.99
29383;BME280;16365;51.598;7.668;2023-02-19T12:24:57;101645.81;;;13.96;56.40
29383;BME280;16365;51.598;7.668;2023-02-19T12:32:51;101649.41;;;14.14;56.04
29383;BME280;16365;51.598;7.668;2023-02-19T12:35:45;101657.94;;;14.18;56.54
29383;BME280;16365;51.598;7.668;2023-02-19T12:38:44;101655.00;;;14.23;55.75
29383;BME280;16365;51.598;7.668;2023-02-19T12:41:50;101651.53;;;14.26;56.07
29383;BME280;16365;51.598;7.668;2023-02-19T12:47:14;101644.59;;;14.40;56.05
29383;BME280;16365;51.598;7.668;2023-02-19T12:49:47;101649.19;;;14.45;55.83
29383;BME280;16365;51.598;7.668;2023-02-19T12:52:20;101648.22;;;14.50;56.48
29383;BME280;16365;51.598;7.668;2023-02-19T12:54:51;101663.66;;;14.56;56.11
29383;BME280;16365;51.598;7.668;2023-02-19T12:57:27;101666.59;;;14.59;55.42
29383;BME280;16365;51.598;7.668;2023-02-19T13:00:00;101667.56;;;14.63;55.16
29383;BME280;16365;51.598;7.668;2023-02-19T13:02:42;101676.47;;;14.65;55.00
29383;BME280;16365;51.598;7.668;2023-02-19T13:05:20;101670.19;;;14.69;55.22
29383;BME280;16365;51.598;7.668;2023-02-19T13:08:02;101684.81;;;14.65;54.72
29383;BME280;16365;51.598;7.668;2023-02-19T13:10:42;101687.28;;;14.67;55.00
29383;BME280;16365;51.598;7.668;2023-02-19T13:13:14;101669.72;;;14.67;54.86
29383;BME280;16365;51.598;7.668;2023-02-19T13:15:47;101668.09;;;14.65;54.67
29383;BME280;16365;51.598;7.668;2023-02-19T13:18:19;101675.63;;;14.65;55.22
29383;BME280;16365;51.598;7.668;2023-02-19T13:20:47;101675.63;;;14.65;55.20
29383;BME280;16365;51.598;7.668;2023-02-19T13:23:24;101673.84;;;14.60;54.89
29383;BME280;16365;51.598;7.668;2023-02-19T13:26:36;101681.22;;;14.56;55.07
29383;BME280;16365;51.598;7.668;2023-02-19T13:38:02;101690.91;;;14.50;54.46
29383;BME280;16365;51.598;7.668;2023-02-19T13:40:36;101689.28;;;14.49;55.02
29383;BME280;16365;51.598;7.668;2023-02-19T13:43:18;101697.78;;;14.44;55.10
29383;BME280;16365;51.598;7.668;2023-02-19T13:45:54;101697.63;;;14.40;54.92
29383;BME280;16365;51.598;7.668;2023-02-19T13:51:36;101700.09;;;14.33;54.69
29383;BME280;16365;51.598;7.668;2023-02-19T13:56:34;101715.38;;;14.27;55.04
29383;BME280;16365;51.598;7.668;2023-02-19T14:14:50;101725.03;;;14.30;55.80
29383;BME280;16365;51.598;7.668;2023-02-19T14:17:42;101730.31;;;14.31;55.54
29383;BME280;16365;51.598;7.668;2023-02-19T14:27:56;101744.06;;;14.45;55.69
29383;BME280;16365;51.598;7.668;2023-02-19T14:30:26;101752.63;;;14.49;55.56
29383;BME280;16365;51.598;7.668;2023-02-19T14:32:53;101755.94;;;14.51;55.10
29383;BME280;16365;51.598;7.668;2023-02-19T14:35:41;101750.84;;;14.53;55.35
29383;BME280;16365;51.598;7.668;2023-02-19T14:38:21;101754.44;;;14.53;54.84
29383;BME280;16365;51.598;7.668;2023-02-19T14:40:49;101739.84;;;14.56;55.43
29383;BME280;16365;51.598;7.668;2023-02-19T14:43:20;101745.41;;;14.56;54.89
29383;BME280;16365;51.598;7.668;2023-02-19T14:45:52;101750.19;;;14.56;55.06
29383;BME280;16365;51.598;7.668;2023-02-19T14:48:26;101755.44;;;14.57;55.29
29383;BME280;16365;51.598;7.668;2023-02-19T14:50:58;101755.09;;;14.59;55.05
29383;BME280;16365;51.598;7.668;2023-02-19T14:53:28;101756.41;;;14.61;55.42
29383;BME280;16365;51.598;7.668;2023-02-19T14:55:57;101750.00;;;14.61;55.38
29383;BME280;16365;51.598;7.668;2023-02-19T14:58:30;101740.81;;;14.60;55.22
29383;BME280;16365;51.598;7.668;2023-02-19T15:00:59;101734.91;;;14.62;55.41
29383;BME280;16365;51.598;7.668;2023-02-19T15:03:31;101731.28;;;14.61;55.29